sensor_id;sensor_type;location;lat;lon;timestamp;temperature;humidity
42841;DHT22;28491;46.898;7.660;2024-03-02T00:02:06;3.80;1.00
42841;DHT22;28491;46.898;7.660;2024-03-02T00:04:32;3.70;1.00
42841;DHT22;28491;46.898;7.660;2024-03-02T00:06:58;3.80;1.00
42841;DHT22;28491;46.898;7.660;2024-03-02T00:09:23;3.70;1.00
42841;DHT22;28491;46.898;7.660;2024-03-02T00:11:49;3.80;1.00
42841;DHT22;28491;46.898;7.660;2024-03-02T00:14:16;3.80;1.00
42841;DHT22;28491;46.898;7.660;2024-03-02T00:16:42;3.70;1.00
42841;DHT22;28491;46.898;7.660;2024-03-02T00:19:09;3.70;1.00
42841;DHT22;28491;46.898;7.660;2024-03-02T00:21:35;3.60;1.00
42841;DHT22;28491;46.898;7.660;2024-03-02T00:24:27;3.60;1.00
42841;DHT22;28491;46.898;7.660;2024-03-02T00:26:48;3.60;1.00
42841;DHT22;28491;46.898;7.660;2024-03-02T00:29:16;3.50;1.00
42841;DHT22;28491;46.898;7.660;2024-03-02T00:31:43;3.50;1.00
42841;DHT22;28491;46.898;7.660;2024-03-02T00:34:09;3.50;1.00
42841;DHT22;28491;46.898;7.660;2024-03-02T00:36:38;3.50;1.00
42841;DHT22;28491;46.898;7.660;2024-03-02T00:39:05;3.50;1.00
42841;DHT22;28491;46.898;7.660;2024-03-02T00:41:33;3.50;1.00
42841;DHT22;28491;46.898;7.660;2024-03-02T00:44:04;3.50;1.00
42841;DHT22;28491;46.898;7.660;2024-03-02T00:46:41;3.60;7.70
42841;DHT22;28491;46.898;7.660;2024-03-02T00:49:22;3.60;16.20
42841;DHT22;28491;46.898;7.660;2024-03-02T00:51:50;3.70;48.90
42841;DHT22;28491;46.898;7.660;2024-03-02T00:54:23;3.70;61.80
42841;DHT22;28491;46.898;7.660;2024-03-02T00:56:50;3.70;65.70
42841;DHT22;28491;46.898;7.660;2024-03-02T00:59:16;3.70;69.30
42841;DHT22;28491;46.898;7.660;2024-03-02T01:01:42;3.80;69.60
42841;DHT22;28491;46.898;7.660;2024-03-02T01:04:08;3.80;70.20
42841;DHT22;28491;46.898;7.660;2024-03-02T01:06:35;3.80;67.90
42841;DHT22;28491;46.898;7.660;2024-03-02T01:09:00;3.70;68.90
42841;DHT22;28491;46.898;7.660;2024-03-02T01:11:26;3.70;69.20
42841;DHT22;28491;46.898;7.660;2024-03-02T01:13:52;3.60;68.90
42841;DHT22;28491;46.898;7.660;2024-03-02T01:16:17;3.70;71.80
42841;DHT22;28491;46.898;7.660;2024-03-02T01:18:43;3.80;73.20
42841;DHT22;28491;46.898;7.660;2024-03-02T01:21:09;3.80;73.10
42841;DHT22;28491;46.898;7.660;2024-03-02T01:23:34;3.80;73.70
42841;DHT22;28491;46.898;7.660;2024-03-02T01:26:00;3.80;74.40
42841;DHT22;28491;46.898;7.660;2024-03-02T01:28:26;3.80;74.60
42841;DHT22;28491;46.898;7.660;2024-03-02T01:30:51;3.70;73.60
42841;DHT22;28491;46.898;7.660;2024-03-02T01:33:18;3.70;73.20
42841;DHT22;28491;46.898;7.660;2024-03-02T01:35:44;3.70;73.20
42841;DHT22;28491;46.898;7.660;2024-03-02T01:38:10;3.80;71.90
42841;DHT22;28491;46.898;7.660;2024-03-02T01:40:37;3.70;71.10
42841;DHT22;28491;46.898;7.660;2024-03-02T01:43:04;3.80;71.50
42841;DHT22;28491;46.898;7.660;2024-03-02T01:45:30;3.70;71.40
42841;DHT22;28491;46.898;7.660;2024-03-02T01:47:56;3.70;70.90
42841;DHT22;28491;46.898;7.660;2024-03-02T01:50:29;3.70;70.90
42841;DHT22;28491;46.898;7.660;2024-03-02T01:52:56;3.70;69.20
42841;DHT22;28491;46.898;7.660;2024-03-02T01:55:21;3.70;68.80
42841;DHT22;28491;46.898;7.660;2024-03-02T01:57:51;3.70;68.60
42841;DHT22;28491;46.898;7.660;2024-03-02T02:00:18;3.70;68.80
42841;DHT22;28491;46.898;7.660;2024-03-02T02:02:45;3.70;69.00
42841;DHT22;28491;46.898;7.660;2024-03-02T02:05:10;3.60;68.00
42841;DHT22;28491;46.898;7.660;2024-03-02T02:07:36;3.60;67.70
42841;DHT22;28491;46.898;7.660;2024-03-02T02:10:02;3.60;68.00
42841;DHT22;28491;46.898;7.660;2024-03-02T02:12:27;3.60;68.00
42841;DHT22;28491;46.898;7.660;2024-03-02T02:14:53;3.60;65.70
42841;DHT22;28491;46.898;7.660;2024-03-02T02:17:19;3.60;64.30
42841;DHT22;28491;46.898;7.660;2024-03-02T02:19:44;3.50;63.40
42841;DHT22;28491;46.898;7.660;2024-03-02T02:22:10;3.50;63.60
42841;DHT22;28491;46.898;7.660;2024-03-02T02:24:40;3.40;64.80
42841;DHT22;28491;46.898;7.660;2024-03-02T02:27:07;3.50;65.20
42841;DHT22;28491;46.898;7.660;2024-03-02T02:29:32;3.50;65.30
42841;DHT22;28491;46.898;7.660;2024-03-02T02:31:58;3.40;66.40
42841;DHT22;28491;46.898;7.660;2024-03-02T02:34:24;3.40;66.90
42841;DHT22;28491;46.898;7.660;2024-03-02T02:36:49;3.40;67.40
42841;DHT22;28491;46.898;7.660;2024-03-02T02:39:17;3.50;66.90
42841;DHT22;28491;46.898;7.660;2024-03-02T02:41:44;3.40;67.10
42841;DHT22;28491;46.898;7.660;2024-03-02T02:44:09;3.40;65.10
42841;DHT22;28491;46.898;7.660;2024-03-02T02:46:38;3.40;65.50
42841;DHT22;28491;46.898;7.660;2024-03-02T02:49:04;3.40;65.30
42841;DHT22;28491;46.898;7.660;2024-03-02T02:51:30;3.30;64.20
42841;DHT22;28491;46.898;7.660;2024-03-02T02:53:55;3.30;63.50
42841;DHT22;28491;46.898;7.660;2024-03-02T02:56:21;3.30;61.40
42841;DHT22;28491;46.898;7.660;2024-03-02T02:58:46;3.30;61.90
42841;DHT22;28491;46.898;7.660;2024-03-02T03:01:12;3.30;61.90
42841;DHT22;28491;46.898;7.660;2024-03-02T03:03:38;3.20;60.40
42841;DHT22;28491;46.898;7.660;2024-03-02T03:06:03;3.20;60.90
42841;DHT22;28491;46.898;7.660;2024-03-02T03:08:29;3.30;62.00
42841;DHT22;28491;46.898;7.660;2024-03-02T03:10:54;3.20;62.70
42841;DHT22;28491;46.898;7.660;2024-03-02T03:13:20;3.20;63.40
42841;DHT22;28491;46.898;7.660;2024-03-02T03:15:46;3.30;64.00
42841;DHT22;28491;46.898;7.660;2024-03-02T03:18:11;3.30;63.30
42841;DHT22;28491;46.898;7.660;2024-03-02T03:20:37;3.30;62.10
42841;DHT22;28491;46.898;7.660;2024-03-02T03:23:03;3.30;61.00
42841;DHT22;28491;46.898;7.660;2024-03-02T03:25:29;3.30;60.00
42841;DHT22;28491;46.898;7.660;2024-03-02T03:27:55;3.20;56.90
42841;DHT22;28491;46.898;7.660;2024-03-02T03:30:21;3.20;60.00
42841;DHT22;28491;46.898;7.660;2024-03-02T03:32:46;3.20;59.90
42841;DHT22;28491;46.898;7.660;2024-03-02T03:35:13;3.30;53.50
42841;DHT22;28491;46.898;7.660;2024-03-02T03:37:40;3.20;55.90
42841;DHT22;28491;46.898;7.660;2024-03-02T03:40:06;3.20;52.80
42841;DHT22;28491;46.898;7.660;2024-03-02T03:42:35;3.20;54.80
42841;DHT22;28491;46.898;7.660;2024-03-02T03:45:01;3.20;60.00
42841;DHT22;28491;46.898;7.660;2024-03-02T03:47:27;3.10;59.90
42841;DHT22;28491;46.898;7.660;2024-03-02T03:49:52;3.10;54.20
42841;DHT22;28491;46.898;7.660;2024-03-02T03:52:18;3.10;51.00
42841;DHT22;28491;46.898;7.660;2024-03-02T03:54:43;3.10;42.40
42841;DHT22;28491;46.898;7.660;2024-03-02T03:57:10;3.20;35.60
42841;DHT22;28491;46.898;7.660;2024-03-02T03:59:35;3.00;24.90
42841;DHT22;28491;46.898;7.660;2024-03-02T04:02:03;3.00;17.20
42841;DHT22;28491;46.898;7.660;2024-03-02T04:04:28;2.90;24.20
42841;DHT22;28491;46.898;7.660;2024-03-02T04:06:54;2.90;29.90
42841;DHT22;28491;46.898;7.660;2024-03-02T04:09:19;2.90;34.00
42841;DHT22;28491;46.898;7.660;2024-03-02T04:11:45;2.80;32.80
42841;DHT22;28491;46.898;7.660;2024-03-02T04:14:11;2.80;25.80
42841;DHT22;28491;46.898;7.660;2024-03-02T04:16:38;2.70;32.90
42841;DHT22;28491;46.898;7.660;2024-03-02T04:19:03;2.70;36.60
42841;DHT22;28491;46.898;7.660;2024-03-02T04:21:29;2.70;41.90
42841;DHT22;28491;46.898;7.660;2024-03-02T04:23:55;2.70;41.30
42841;DHT22;28491;46.898;7.660;2024-03-02T04:26:24;2.70;29.70
42841;DHT22;28491;46.898;7.660;2024-03-02T04:28:51;2.60;27.00
42841;DHT22;28491;46.898;7.660;2024-03-02T04:31:17;2.60;34.70
42841;DHT22;28491;46.898;7.660;2024-03-02T04:33:42;2.70;39.80
42841;DHT22;28491;46.898;7.660;2024-03-02T04:36:08;2.70;38.50
42841;DHT22;28491;46.898;7.660;2024-03-02T04:38:35;2.70;36.10
42841;DHT22;28491;46.898;7.660;2024-03-02T04:41:01;2.70;30.00
42841;DHT22;28491;46.898;7.660;2024-03-02T04:43:26;2.60;18.80
42841;DHT22;28491;46.898;7.660;2024-03-02T04:45:52;2.60;21.00
42841;DHT22;28491;46.898;7.660;2024-03-02T04:48:17;2.50;23.70
42841;DHT22;28491;46.898;7.660;2024-03-02T04:50:44;2.60;28.40
42841;DHT22;28491;46.898;7.660;2024-03-02T04:53:10;2.70;23.70
42841;DHT22;28491;46.898;7.660;2024-03-02T04:55:35;2.60;20.00
42841;DHT22;28491;46.898;7.660;2024-03-02T04:58:07;2.60;19.30
42841;DHT22;28491;46.898;7.660;2024-03-02T05:00:33;2.50;16.40
42841;DHT22;28491;46.898;7.660;2024-03-02T05:02:58;2.60;19.60
42841;DHT22;28491;46.898;7.660;2024-03-02T05:05:24;2.60;13.50
42841;DHT22;28491;46.898;7.660;2024-03-02T05:07:50;2.60;8.10
42841;DHT22;28491;46.898;7.660;2024-03-02T05:10:15;2.60;5.90
42841;DHT22;28491;46.898;7.660;2024-03-02T05:12:41;2.60;1.50
42841;DHT22;28491;46.898;7.660;2024-03-02T05:15:11;2.60;1.00
42841;DHT22;28491;46.898;7.660;2024-03-02T05:17:37;2.60;1.00
42841;DHT22;28491;46.898;7.660;2024-03-02T05:20:04;2.60;1.00
42841;DHT22;28491;46.898;7.660;2024-03-02T05:22:29;2.50;1.00
42841;DHT22;28491;46.898;7.660;2024-03-02T05:24:55;2.60;1.00
42841;DHT22;28491;46.898;7.660;2024-03-02T05:27:21;2.60;1.00
42841;DHT22;28491;46.898;7.660;2024-03-02T05:29:47;2.50;1.00
42841;DHT22;28491;46.898;7.660;2024-03-02T05:32:12;2.50;1.00
42841;DHT22;28491;46.898;7.660;2024-03-02T05:34:38;2.50;1.00
42841;DHT22;28491;46.898;7.660;2024-03-02T05:37:04;2.40;1.00
42841;DHT22;28491;46.898;7.660;2024-03-02T05:39:29;2.30;6.20
42841;DHT22;28491;46.898;7.660;2024-03-02T05:41:55;2.40;9.10
42841;DHT22;28491;46.898;7.660;2024-03-02T05:44:20;2.40;12.40
42841;DHT22;28491;46.898;7.660;2024-03-02T05:46:47;2.40;4.80
42841;DHT22;28491;46.898;7.660;2024-03-02T05:49:13;2.40;1.00
42841;DHT22;28491;46.898;7.660;2024-03-02T05:51:39;2.40;1.00
42841;DHT22;28491;46.898;7.660;2024-03-02T05:54:04;2.40;1.00
42841;DHT22;28491;46.898;7.660;2024-03-02T05:56:30;2.40;1.00
42841;DHT22;28491;46.898;7.660;2024-03-02T05:58:56;2.50;1.00
42841;DHT22;28491;46.898;7.660;2024-03-02T06:01:42;2.40;1.00
42841;DHT22;28491;46.898;7.660;2024-03-02T06:04:09;2.50;1.00
42841;DHT22;28491;46.898;7.660;2024-03-02T06:06:34;2.50;1.00
42841;DHT22;28491;46.898;7.660;2024-03-02T06:09:04;2.50;1.00
42841;DHT22;28491;46.898;7.660;2024-03-02T06:11:40;2.50;1.00
42841;DHT22;28491;46.898;7.660;2024-03-02T06:14:06;2.50;1.00
42841;DHT22;28491;46.898;7.660;2024-03-02T06:16:33;2.50;1.00
42841;DHT22;28491;46.898;7.660;2024-03-02T06:18:58;2.50;1.00
42841;DHT22;28491;46.898;7.660;2024-03-02T06:21:24;2.50;1.00
42841;DHT22;28491;46.898;7.660;2024-03-02T06:23:50;2.60;1.00
42841;DHT22;28491;46.898;7.660;2024-03-02T06:26:16;2.60;1.00
42841;DHT22;28491;46.898;7.660;2024-03-02T06:28:41;2.60;1.00
42841;DHT22;28491;46.898;7.660;2024-03-02T06:31:07;2.60;1.00
42841;DHT22;28491;46.898;7.660;2024-03-02T06:33:33;2.60;1.00
42841;DHT22;28491;46.898;7.660;2024-03-02T06:35:58;2.60;1.00
42841;DHT22;28491;46.898;7.660;2024-03-02T06:38:24;2.60;1.00
42841;DHT22;28491;46.898;7.660;2024-03-02T06:40:49;2.70;1.00
42841;DHT22;28491;46.898;7.660;2024-03-02T06:43:15;2.70;1.00
42841;DHT22;28491;46.898;7.660;2024-03-02T06:45:40;2.70;1.00
42841;DHT22;28491;46.898;7.660;2024-03-02T06:48:06;2.60;1.00
42841;DHT22;28491;46.898;7.660;2024-03-02T06:50:32;2.60;1.00
42841;DHT22;28491;46.898;7.660;2024-03-02T06:52:58;2.70;1.00
42841;DHT22;28491;46.898;7.660;2024-03-02T06:55:23;2.70;1.00
42841;DHT22;28491;46.898;7.660;2024-03-02T06:57:52;2.70;1.00
42841;DHT22;28491;46.898;7.660;2024-03-02T07:00:19;2.70;1.00
42841;DHT22;28491;46.898;7.660;2024-03-02T07:02:46;2.80;1.00
42841;DHT22;28491;46.898;7.660;2024-03-02T07:05:11;2.80;1.00
42841;DHT22;28491;46.898;7.660;2024-03-02T07:07:37;2.90;1.00
42841;DHT22;28491;46.898;7.660;2024-03-02T07:10:04;2.80;1.00
42841;DHT22;28491;46.898;7.660;2024-03-02T07:12:30;2.90;1.00
42841;DHT22;28491;46.898;7.660;2024-03-02T07:14:56;2.90;1.00
42841;DHT22;28491;46.898;7.660;2024-03-02T07:17:42;2.90;1.00
42841;DHT22;28491;46.898;7.660;2024-03-02T07:20:08;3.00;1.00
42841;DHT22;28491;46.898;7.660;2024-03-02T07:22:34;3.00;1.60
42841;DHT22;28491;46.898;7.660;2024-03-02T07:24:59;3.10;1.00
42841;DHT22;28491;46.898;7.660;2024-03-02T07:27:25;3.10;1.00
42841;DHT22;28491;46.898;7.660;2024-03-02T07:29:50;3.20;1.00
42841;DHT22;28491;46.898;7.660;2024-03-02T07:32:16;3.20;1.00
42841;DHT22;28491;46.898;7.660;2024-03-02T07:34:42;3.40;1.40
42841;DHT22;28491;46.898;7.660;2024-03-02T07:37:07;3.30;1.70
42841;DHT22;28491;46.898;7.660;2024-03-02T07:39:33;3.40;1.30
42841;DHT22;28491;46.898;7.660;2024-03-02T07:41:59;3.40;3.30
42841;DHT22;28491;46.898;7.660;2024-03-02T07:44:25;3.40;5.30
42841;DHT22;28491;46.898;7.660;2024-03-02T07:46:51;3.50;9.50
42841;DHT22;28491;46.898;7.660;2024-03-02T07:49:17;3.50;7.20
42841;DHT22;28491;46.898;7.660;2024-03-02T07:51:43;3.60;11.80
42841;DHT22;28491;46.898;7.660;2024-03-02T07:54:09;3.60;8.60
42841;DHT22;28491;46.898;7.660;2024-03-02T07:56:34;3.70;7.90
42841;DHT22;28491;46.898;7.660;2024-03-02T07:59:01;3.70;12.30
42841;DHT22;28491;46.898;7.660;2024-03-02T08:01:31;3.80;14.20
42841;DHT22;28491;46.898;7.660;2024-03-02T08:03:57;3.90;14.10
42841;DHT22;28491;46.898;7.660;2024-03-02T08:06:24;4.00;10.40
42841;DHT22;28491;46.898;7.660;2024-03-02T08:08:59;4.00;3.70
42841;DHT22;28491;46.898;7.660;2024-03-02T08:11:25;4.10;3.80
42841;DHT22;28491;46.898;7.660;2024-03-02T08:13:50;4.10;1.60
42841;DHT22;28491;46.898;7.660;2024-03-02T08:16:18;4.20;9.50
42841;DHT22;28491;46.898;7.660;2024-03-02T08:18:47;4.30;15.10
42841;DHT22;28491;46.898;7.660;2024-03-02T08:21:13;4.30;20.90
42841;DHT22;28491;46.898;7.660;2024-03-02T08:23:39;4.40;17.20
42841;DHT22;28491;46.898;7.660;2024-03-02T08:26:06;4.50;13.70
42841;DHT22;28491;46.898;7.660;2024-03-02T08:28:32;4.50;11.00
42841;DHT22;28491;46.898;7.660;2024-03-02T08:30:58;4.50;8.60
42841;DHT22;28491;46.898;7.660;2024-03-02T08:33:28;4.60;15.40
42841;DHT22;28491;46.898;7.660;2024-03-02T08:59:39;5.10;1.00
42841;DHT22;28491;46.898;7.660;2024-03-02T09:12:26;5.40;1.00
42841;DHT22;28491;46.898;7.660;2024-03-02T09:14:51;5.50;1.00
42841;DHT22;28491;46.898;7.660;2024-03-02T09:27:39;5.70;1.00
42841;DHT22;28491;46.898;7.660;2024-03-02T09:30:07;5.70;1.00
42841;DHT22;28491;46.898;7.660;2024-03-02T09:32:33;5.80;1.00
42841;DHT22;28491;46.898;7.660;2024-03-02T09:34:59;5.80;1.00
42841;DHT22;28491;46.898;7.660;2024-03-02T09:37:24;5.80;1.00
42841;DHT22;28491;46.898;7.660;2024-03-02T09:39:50;5.80;1.00
42841;DHT22;28491;46.898;7.660;2024-03-02T09:42:17;6.00;1.00
42841;DHT22;28491;46.898;7.660;2024-03-02T09:44:50;6.00;1.00
42841;DHT22;28491;46.898;7.660;2024-03-02T09:47:15;6.00;1.00
42841;DHT22;28491;46.898;7.660;2024-03-02T09:49:41;6.10;1.00
42841;DHT22;28491;46.898;7.660;2024-03-02T09:52:10;6.20;1.00
42841;DHT22;28491;46.898;7.660;2024-03-02T09:54:36;6.30;1.00
42841;DHT22;28491;46.898;7.660;2024-03-02T09:57:02;6.30;1.00
42841;DHT22;28491;46.898;7.660;2024-03-02T09:59:28;6.30;1.00
42841;DHT22;28491;46.898;7.660;2024-03-02T10:02:04;6.40;1.00
42841;DHT22;28491;46.898;7.660;2024-03-02T10:04:32;6.50;1.00
42841;DHT22;28491;46.898;7.660;2024-03-02T10:07:18;6.50;1.00
42841;DHT22;28491;46.898;7.660;2024-03-02T10:09:48;6.60;1.00
42841;DHT22;28491;46.898;7.660;2024-03-02T10:12:15;6.60;1.00
42841;DHT22;28491;46.898;7.660;2024-03-02T10:14:42;6.60;1.00
42841;DHT22;28491;46.898;7.660;2024-03-02T10:17:09;6.80;1.00
42841;DHT22;28491;46.898;7.660;2024-03-02T10:19:36;6.90;1.00
42841;DHT22;28491;46.898;7.660;2024-03-02T10:22:09;6.90;1.00
42841;DHT22;28491;46.898;7.660;2024-03-02T10:24:45;6.90;1.00
42841;DHT22;28491;46.898;7.660;2024-03-02T10:27:16;7.10;99.90
42841;DHT22;28491;46.898;7.660;2024-03-02T10:29:46;7.10;1.00
42841;DHT22;28491;46.898;7.660;2024-03-02T10:32:12;7.10;1.00
42841;DHT22;28491;46.898;7.660;2024-03-02T10:34:40;7.20;1.00
42841;DHT22;28491;46.898;7.660;2024-03-02T10:37:06;7.30;99.90
42841;DHT22;28491;46.898;7.660;2024-03-02T10:39:35;7.40;99.90
42841;DHT22;28491;46.898;7.660;2024-03-02T10:42:02;7.40;95.20
42841;DHT22;28491;46.898;7.660;2024-03-02T10:44:30;7.50;94.40
42841;DHT22;28491;46.898;7.660;2024-03-02T10:46:56;7.60;90.00
42841;DHT22;28491;46.898;7.660;2024-03-02T10:49:23;7.80;91.70
42841;DHT22;28491;46.898;7.660;2024-03-02T10:51:50;7.90;71.40
42841;DHT22;28491;46.898;7.660;2024-03-02T10:54:15;8.00;72.60
42841;DHT22;28491;46.898;7.660;2024-03-02T10:56:42;8.10;37.90
42841;DHT22;28491;46.898;7.660;2024-03-02T10:59:21;8.10;71.80
42841;DHT22;28491;46.898;7.660;2024-03-02T11:01:50;8.30;98.60
42841;DHT22;28491;46.898;7.660;2024-03-02T11:04:18;8.30;78.60
42841;DHT22;28491;46.898;7.660;2024-03-02T11:06:49;8.30;79.20
42841;DHT22;28491;46.898;7.660;2024-03-02T11:09:20;8.20;77.60
42841;DHT22;28491;46.898;7.660;2024-03-02T11:11:53;8.30;80.40
42841;DHT22;28491;46.898;7.660;2024-03-02T11:14:23;8.20;87.40
42841;DHT22;28491;46.898;7.660;2024-03-02T11:16:50;8.40;75.50
42841;DHT22;28491;46.898;7.660;2024-03-02T11:19:17;8.40;66.90
42841;DHT22;28491;46.898;7.660;2024-03-02T11:21:43;8.40;46.60
42841;DHT22;28491;46.898;7.660;2024-03-02T11:26:51;8.50;99.90
42841;DHT22;28491;46.898;7.660;2024-03-02T11:32:01;8.60;1.00
42841;DHT22;28491;46.898;7.660;2024-03-02T11:34:36;8.60;1.00
42841;DHT22;28491;46.898;7.660;2024-03-02T11:37:05;8.60;1.00
42841;DHT22;28491;46.898;7.660;2024-03-02T11:39:31;8.70;1.00
42841;DHT22;28491;46.898;7.660;2024-03-02T11:41:57;8.70;38.20
42841;DHT22;28491;46.898;7.660;2024-03-02T11:44:28;8.60;54.10
42841;DHT22;28491;46.898;7.660;2024-03-02T11:47:01;8.90;1.00
42841;DHT22;28491;46.898;7.660;2024-03-02T11:52:04;8.90;1.00
42841;DHT22;28491;46.898;7.660;2024-03-02T11:54:33;8.90;1.00
42841;DHT22;28491;46.898;7.660;2024-03-02T11:57:02;9.00;1.00
42841;DHT22;28491;46.898;7.660;2024-03-02T11:59:29;9.10;99.90
42841;DHT22;28491;46.898;7.660;2024-03-02T12:01:55;9.30;87.70
42841;DHT22;28491;46.898;7.660;2024-03-02T12:04:24;9.50;79.30
42841;DHT22;28491;46.898;7.660;2024-03-02T12:06:57;9.60;56.30
42841;DHT22;28491;46.898;7.660;2024-03-02T12:09:27;9.60;36.70
42841;DHT22;28491;46.898;7.660;2024-03-02T12:12:09;9.60;1.80
42841;DHT22;28491;46.898;7.660;2024-03-02T12:14:36;9.50;40.70
42841;DHT22;28491;46.898;7.660;2024-03-02T12:17:03;9.40;72.30
42841;DHT22;28491;46.898;7.660;2024-03-02T12:19:29;9.30;76.50
42841;DHT22;28491;46.898;7.660;2024-03-02T12:21:56;9.20;82.80
42841;DHT22;28491;46.898;7.660;2024-03-02T12:24:23;9.10;85.20
42841;DHT22;28491;46.898;7.660;2024-03-02T12:26:50;9.20;18.70
42841;DHT22;28491;46.898;7.660;2024-03-02T12:29:16;9.20;69.00
42841;DHT22;28491;46.898;7.660;2024-03-02T12:31:42;9.40;1.00
42841;DHT22;28491;46.898;7.660;2024-03-02T12:34:12;9.40;1.00
42841;DHT22;28491;46.898;7.660;2024-03-02T12:36:39;9.30;1.00
42841;DHT22;28491;46.898;7.660;2024-03-02T12:39:05;9.50;1.00
42841;DHT22;28491;46.898;7.660;2024-03-02T12:41:30;9.40;1.00
42841;DHT22;28491;46.898;7.660;2024-03-02T12:43:56;9.40;1.00
42841;DHT22;28491;46.898;7.660;2024-03-02T12:46:22;9.40;1.00
42841;DHT22;28491;46.898;7.660;2024-03-02T12:48:47;9.40;15.70
42841;DHT22;28491;46.898;7.660;2024-03-02T12:51:13;9.40;38.30
42841;DHT22;28491;46.898;7.660;2024-03-02T12:53:39;9.40;21.10
42841;DHT22;28491;46.898;7.660;2024-03-02T12:56:05;9.30;59.70
42841;DHT22;28491;46.898;7.660;2024-03-02T12:58:39;9.40;60.30
42841;DHT22;28491;46.898;7.660;2024-03-02T13:01:08;9.30;63.40
42841;DHT22;28491;46.898;7.660;2024-03-02T13:03:35;9.40;1.00
42841;DHT22;28491;46.898;7.660;2024-03-02T13:06:00;9.40;1.00
42841;DHT22;28491;46.898;7.660;2024-03-02T13:08:26;9.50;1.00
42841;DHT22;28491;46.898;7.660;2024-03-02T13:10:52;9.50;1.00
42841;DHT22;28491;46.898;7.660;2024-03-02T13:13:17;9.40;1.00
42841;DHT22;28491;46.898;7.660;2024-03-02T13:15:44;9.50;47.50
42841;DHT22;28491;46.898;7.660;2024-03-02T13:18:11;9.50;1.00
42841;DHT22;28491;46.898;7.660;2024-03-02T13:20:36;9.60;1.00
42841;DHT22;28491;46.898;7.660;2024-03-02T13:23:02;9.70;1.00
42841;DHT22;28491;46.898;7.660;2024-03-02T13:25:28;9.60;1.00
42841;DHT22;28491;46.898;7.660;2024-03-02T13:27:53;9.60;1.00
42841;DHT22;28491;46.898;7.660;2024-03-02T13:30:19;9.60;1.00
42841;DHT22;28491;46.898;7.660;2024-03-02T13:32:45;9.60;1.00
42841;DHT22;28491;46.898;7.660;2024-03-02T13:35:11;9.60;99.70
42841;DHT22;28491;46.898;7.660;2024-03-02T13:37:39;9.60;1.00
42841;DHT22;28491;46.898;7.660;2024-03-02T13:40:05;9.60;1.00
42841;DHT22;28491;46.898;7.660;2024-03-02T13:42:31;9.60;1.00
42841;DHT22;28491;46.898;7.660;2024-03-02T13:44:56;9.60;1.00
42841;DHT22;28491;46.898;7.660;2024-03-02T13:47:22;9.60;98.30
42841;DHT22;28491;46.898;7.660;2024-03-02T13:49:48;9.60;99.90
42841;DHT22;28491;46.898;7.660;2024-03-02T13:52:15;9.60;1.00
42841;DHT22;28491;46.898;7.660;2024-03-02T13:54:44;9.50;1.00
42841;DHT22;28491;46.898;7.660;2024-03-02T13:57:11;9.50;1.00
42841;DHT22;28491;46.898;7.660;2024-03-02T13:59:37;9.50;1.00
42841;DHT22;28491;46.898;7.660;2024-03-02T14:02:04;9.50;1.00
42841;DHT22;28491;46.898;7.660;2024-03-02T14:04:31;9.50;1.00
42841;DHT22;28491;46.898;7.660;2024-03-02T14:06:57;9.60;1.00
42841;DHT22;28491;46.898;7.660;2024-03-02T14:09:23;9.60;1.00
42841;DHT22;28491;46.898;7.660;2024-03-02T14:11:50;9.70;99.90
42841;DHT22;28491;46.898;7.660;2024-03-02T14:14:18;9.90;1.00
42841;DHT22;28491;46.898;7.660;2024-03-02T14:16:49;9.80;1.00
42841;DHT22;28491;46.898;7.660;2024-03-02T14:19:15;9.90;1.00
42841;DHT22;28491;46.898;7.660;2024-03-02T14:21:41;9.90;1.00
42841;DHT22;28491;46.898;7.660;2024-03-02T14:24:06;9.90;1.00
42841;DHT22;28491;46.898;7.660;2024-03-02T14:26:32;9.90;99.90
42841;DHT22;28491;46.898;7.660;2024-03-02T14:28:59;10.00;1.00
42841;DHT22;28491;46.898;7.660;2024-03-02T14:31:27;10.10;1.00
42841;DHT22;28491;46.898;7.660;2024-03-02T14:33:54;10.20;99.90
42841;DHT22;28491;46.898;7.660;2024-03-02T14:36:20;10.40;99.90
42841;DHT22;28491;46.898;7.660;2024-03-02T14:38:46;10.40;99.90
42841;DHT22;28491;46.898;7.660;2024-03-02T14:41:11;10.40;99.90
42841;DHT22;28491;46.898;7.660;2024-03-02T14:43:37;10.40;99.90
42841;DHT22;28491;46.898;7.660;2024-03-02T14:46:03;10.40;99.90
42841;DHT22;28491;46.898;7.660;2024-03-02T14:48:29;10.40;1.00
42841;DHT22;28491;46.898;7.660;2024-03-02T14:50:54;10.50;1.00
42841;DHT22;28491;46.898;7.660;2024-03-02T14:53:20;10.60;99.90
42841;DHT22;28491;46.898;7.660;2024-03-02T14:55:46;10.60;98.20
42841;DHT22;28491;46.898;7.660;2024-03-02T14:58:13;10.70;96.20
42841;DHT22;28491;46.898;7.660;2024-03-02T15:00:39;10.80;94.80
42841;DHT22;28491;46.898;7.660;2024-03-02T15:03:04;10.80;97.70
42841;DHT22;28491;46.898;7.660;2024-03-02T15:05:33;10.70;96.30
42841;DHT22;28491;46.898;7.660;2024-03-02T15:07:58;10.70;96.80
42841;DHT22;28491;46.898;7.660;2024-03-02T15:10:27;10.70;99.90
42841;DHT22;28491;46.898;7.660;2024-03-02T15:12:53;10.50;99.90
42841;DHT22;28491;46.898;7.660;2024-03-02T15:15:18;10.50;99.90
42841;DHT22;28491;46.898;7.660;2024-03-02T15:17:45;10.50;98.20
42841;DHT22;28491;46.898;7.660;2024-03-02T15:20:12;10.50;98.70
42841;DHT22;28491;46.898;7.660;2024-03-02T15:22:38;10.40;1.00
42841;DHT22;28491;46.898;7.660;2024-03-02T15:25:03;10.30;1.00
42841;DHT22;28491;46.898;7.660;2024-03-02T15:27:30;10.30;1.00
42841;DHT22;28491;46.898;7.660;2024-03-02T15:29:59;10.30;1.00
42841;DHT22;28491;46.898;7.660;2024-03-02T15:32:25;10.30;1.00
42841;DHT22;28491;46.898;7.660;2024-03-02T15:34:52;10.30;1.00
42841;DHT22;28491;46.898;7.660;2024-03-02T15:37:18;10.30;1.00
42841;DHT22;28491;46.898;7.660;2024-03-02T15:39:44;10.30;1.00
42841;DHT22;28491;46.898;7.660;2024-03-02T15:42:10;10.30;1.00
42841;DHT22;28491;46.898;7.660;2024-03-02T15:44:35;10.30;1.00
42841;DHT22;28491;46.898;7.660;2024-03-02T15:47:01;10.30;1.00
42841;DHT22;28491;46.898;7.660;2024-03-02T15:49:27;10.30;1.00
42841;DHT22;28491;46.898;7.660;2024-03-02T15:51:53;10.30;1.00
42841;DHT22;28491;46.898;7.660;2024-03-02T15:54:19;10.30;1.00
42841;DHT22;28491;46.898;7.660;2024-03-02T15:56:44;10.10;29.20
42841;DHT22;28491;46.898;7.660;2024-03-02T15:59:10;10.10;14.00
42841;DHT22;28491;46.898;7.660;2024-03-02T16:01:37;10.10;60.90
42841;DHT22;28491;46.898;7.660;2024-03-02T16:04:03;10.00;67.10
42841;DHT22;28491;46.898;7.660;2024-03-02T16:06:28;9.90;72.40
42841;DHT22;28491;46.898;7.660;2024-03-02T16:08:56;9.80;85.40
42841;DHT22;28491;46.898;7.660;2024-03-02T16:11:29;9.70;90.60
42841;DHT22;28491;46.898;7.660;2024-03-02T16:13:55;9.60;99.90
42841;DHT22;28491;46.898;7.660;2024-03-02T16:16:21;9.50;1.00
42841;DHT22;28491;46.898;7.660;2024-03-02T16:18:46;9.50;1.00
42841;DHT22;28491;46.898;7.660;2024-03-02T16:21:12;9.50;16.90
42841;DHT22;28491;46.898;7.660;2024-03-02T16:23:38;9.40;38.50
42841;DHT22;28491;46.898;7.660;2024-03-02T16:26:05;9.40;67.10
42841;DHT22;28491;46.898;7.660;2024-03-02T16:28:31;9.40;68.10
42841;DHT22;28491;46.898;7.660;2024-03-02T16:30:56;9.30;76.40
42841;DHT22;28491;46.898;7.660;2024-03-02T16:33:22;9.30;80.20
42841;DHT22;28491;46.898;7.660;2024-03-02T16:35:49;9.30;77.20
42841;DHT22;28491;46.898;7.660;2024-03-02T16:38:15;9.40;81.40
42841;DHT22;28491;46.898;7.660;2024-03-02T16:40:40;9.30;84.30
42841;DHT22;28491;46.898;7.660;2024-03-02T16:43:06;9.30;81.40